Time;durP1;ratioP1;P1;durP2;ratioP2;P2;SDS_P1;SDS_P2;PMS_P1;PMS_P2;Temp;Humidity;BMP_temperature;BMP_pressure;BME280_temperature;BME280_humidity;BME280_pressure;Samples;Min_cycle;Max_cycle;Signal;HPM_P1;HPM_P2
2021/01/28 00:01:32;;;;;;;11.68;8.23;;;5.70;91.80;;;;;;5053846;28;20465;-69
2021/01/28 00:03:57;;;;;;;13.50;9.30;;;5.70;91.90;;;;;;5054063;28;20025;-69
2021/01/28 00:06:22;;;;;;;11.63;8.93;;;5.70;91.90;;;;;;5052260;28;20428;-68
2021/01/28 00:08:48;;;;;;;12.43;8.63;;;5.70;91.90;;;;;;5068589;28;20116;-68
2021/01/28 00:11:13;;;;;;;12.02;8.63;;;5.70;92.00;;;;;;5053252;28;20535;-69
2021/01/28 00:13:39;;;;;;;16.50;9.60;;;5.60;92.10;;;;;;5067948;28;20120;-69
2021/01/28 00:16:05;;;;;;;12.55;8.93;;;5.70;92.10;;;;;;5053641;28;20029;-69
2021/01/28 00:18:31;;;;;;;13.32;9.93;;;5.60;92.10;;;;;;5070464;28;20119;-69
2021/01/28 00:20:56;;;;;;;14.02;9.60;;;5.60;92.20;;;;;;5052500;28;20561;-69
2021/01/28 00:23:22;;;;;;;17.20;9.60;;;5.70;92.30;;;;;;5053051;28;20661;-68
2021/01/28 00:25:48;;;;;;;14.88;10.35;;;5.70;92.20;;;;;;5059939;28;20017;-68
2021/01/28 00:28:16;;;;;;;14.48;9.63;;;5.70;92.20;;;;;;5056572;28;20080;-69
2021/01/28 00:30:44;;;;;;;13.25;9.52;;;5.70;92.30;;;;;;5055313;28;20024;-69
2021/01/28 00:33:13;;;;;;;14.02;10.15;;;5.70;92.40;;;;;;5073335;28;20544;-68
2021/01/28 00:35:41;;;;;;;15.88;10.88;;;5.70;92.50;;;;;;5060398;28;20111;-69
2021/01/28 00:38:15;;;;;;;15.68;10.20;;;5.70;92.60;;;;;;5073111;28;20051;-69
2021/01/28 00:40:41;;;;;;;15.57;10.23;;;5.60;92.70;;;;;;5059595;28;20017;-69
2021/01/28 00:46:28;;;;;;;17.20;11.07;;;5.60;92.90;;;;;;5051595;28;20083;-68
2021/01/28 00:48:53;;;;;;;16.75;11.23;;;5.60;92.90;;;;;;5053229;28;20429;-69
2021/01/28 00:51:19;;;;;;;16.30;10.90;;;5.60;93.00;;;;;;5053049;28;20021;-68
2021/01/28 00:53:44;;;;;;;14.65;10.02;;;5.60;93.10;;;;;;5052053;28;20013;-68
2021/01/28 00:56:10;;;;;;;17.35;10.95;;;5.60;93.20;;;;;;5047755;28;20049;-68
2021/01/28 00:58:35;;;;;;;16.23;10.75;;;5.50;93.20;;;;;;5050592;28;20033;-68
2021/01/28 01:01:02;;;;;;;14.45;10.65;;;5.60;93.30;;;;;;5052933;28;20025;-68
2021/01/28 01:03:28;;;;;;;15.77;11.07;;;5.60;93.30;;;;;;5055108;28;20032;-68
2021/01/28 01:05:55;;;;;;;15.65;10.82;;;5.70;93.40;;;;;;5072774;28;20028;-68
2021/01/28 01:08:30;;;;;;;16.50;10.90;;;5.70;93.40;;;;;;5057362;28;20472;-69
2021/01/28 01:11:00;;;;;;;15.60;11.10;;;5.70;93.40;;;;;;5072887;28;20017;-68
2021/01/28 01:13:29;;;;;;;17.23;10.52;;;5.70;93.40;;;;;;5054428;28;20488;-68
2021/01/28 01:15:55;;;;;;;15.10;10.60;;;5.70;93.40;;;;;;5052014;28;20037;-68
2021/01/28 01:18:25;;;;;;;16.85;10.45;;;5.70;93.40;;;;;;5052242;28;20047;-68
2021/01/28 01:20:51;;;;;;;16.60;11.00;;;5.80;93.50;;;;;;5052183;28;20025;-67
2021/01/28 01:23:16;;;;;;;14.77;10.77;;;5.80;93.50;;;;;;5051930;28;20160;-68
2021/01/28 01:25:42;;;;;;;15.90;10.88;;;5.80;93.50;;;;;;5052666;28;20025;-68
2021/01/28 01:28:08;;;;;;;16.35;11.18;;;5.90;93.50;;;;;;5050570;28;20075;-67
2021/01/28 01:30:34;;;;;;;14.77;10.75;;;5.80;93.50;;;;;;5070301;28;20073;-68
2021/01/28 01:33:00;;;;;;;15.45;10.35;;;5.80;93.60;;;;;;5057766;28;20039;-67
2021/01/28 01:35:26;;;;;;;16.73;11.25;;;5.80;93.60;;;;;;5051893;28;20025;-67
2021/01/28 01:37:54;;;;;;;15.70;10.55;;;5.80;93.70;;;;;;5051132;28;20354;-68
2021/01/28 01:40:26;;;;;;;16.75;11.27;;;5.80;93.80;;;;;;5051594;28;20068;-68
2021/01/28 01:42:52;;;;;;;15.48;10.95;;;5.80;93.90;;;;;;5057460;28;20052;-68
2021/01/28 01:45:26;;;;;;;14.07;10.02;;;5.80;93.90;;;;;;5045802;28;20460;-68
2021/01/28 01:47:57;;;;;;;14.48;10.68;;;5.80;94.00;;;;;;5051063;28;20090;-68
2021/01/28 01:50:53;;;;;;;16.73;10.82;;;5.80;94.20;;;;;;5052043;28;20083;-68
2021/01/28 01:53:45;;;;;;;16.45;10.95;;;5.80;94.10;;;;;;5045670;28;20477;-67
2021/01/28 01:56:20;;;;;;;15.00;10.32;;;5.80;94.10;;;;;;5043470;28;20052;-68
2021/01/28 01:59:01;;;;;;;17.83;11.23;;;5.80;94.30;;;;;;5050280;28;20508;-68
2021/01/28 02:01:30;;;;;;;15.63;10.77;;;5.70;94.30;;;;;;5067609;28;20060;-68
2021/01/28 02:03:56;;;;;;;15.98;10.43;;;5.80;94.40;;;;;;5051014;28;20465;-67
2021/01/28 02:06:30;;;;;;;15.60;10.65;;;5.80;94.40;;;;;;5066859;28;20078;-68
2021/01/28 02:08:56;;;;;;;15.88;10.50;;;5.90;94.50;;;;;;5047725;28;20040;-68
2021/01/28 02:11:23;;;;;;;15.35;10.45;;;5.90;94.50;;;;;;5069612;28;20036;-68
2021/01/28 02:13:50;;;;;;;14.20;10.18;;;5.90;94.50;;;;;;5047628;28;20052;-68
2021/01/28 02:16:19;;;;;;;18.35;11.23;;;5.90;94.60;;;;;;5051784;28;20039;-67
2021/01/28 02:18:46;;;;;;;16.75;10.77;;;5.90;94.60;;;;;;5060313;28;20040;-67
2021/01/28 02:21:24;;;;;;;16.25;10.55;;;5.90;94.70;;;;;;5070633;28;20313;-67
2021/01/28 02:24:15;;;;;;;15.73;11.15;;;6.00;94.80;;;;;;5060011;28;20028;-68
2021/01/28 02:26:46;;;;;;;16.17;11.05;;;5.90;94.70;;;;;;5068519;28;20021;-68
2021/01/28 02:29:13;;;;;;;16.90;10.48;;;6.00;94.80;;;;;;5063344;28;20028;-67
2021/01/28 02:31:40;;;;;;;15.57;9.90;;;6.00;94.80;;;;;;5068607;28;20435;-68
2021/01/28 02:34:08;;;;;;;14.98;10.38;;;6.00;94.80;;;;;;5061931;28;20028;-68
2021/01/28 02:36:44;;;;;;;16.48;9.73;;;6.00;94.90;;;;;;5060027;28;20029;-68
2021/01/28 02:39:13;;;;;;;15.80;10.38;;;6.00;94.90;;;;;;5054747;28;20053;-68
2021/01/28 02:41:41;;;;;;;16.48;10.57;;;6.00;94.90;;;;;;5050400;28;20029;-68
2021/01/28 02:44:06;;;;;;;15.77;9.65;;;6.10;95.00;;;;;;5061570;28;20037;-68
2021/01/28 02:46:32;;;;;;;13.73;9.80;;;6.10;95.00;;;;;;5055436;28;20067;-68
2021/01/28 02:48:58;;;;;;;16.13;11.07;;;6.10;95.00;;;;;;5064692;28;20040;-68
2021/01/28 02:51:24;;;;;;;16.20;10.73;;;6.10;95.00;;;;;;5054880;28;20025;-67
2021/01/28 02:53:54;;;;;;;16.92;11.07;;;6.10;95.00;;;;;;5065009;28;20029;-68
2021/01/28 02:56:21;;;;;;;15.43;10.05;;;6.20;95.10;;;;;;5054618;28;20052;-68
2021/01/28 02:58:47;;;;;;;14.80;10.13;;;6.20;95.10;;;;;;5053479;28;20037;-68
2021/01/28 03:01:12;;;;;;;18.08;10.88;;;6.20;95.10;;;;;;5035082;28;20120;-68
2021/01/28 03:03:38;;;;;;;14.30;10.32;;;6.20;95.10;;;;;;5054951;28;20119;-68
2021/01/28 03:06:05;;;;;;;15.55;9.75;;;6.20;95.10;;;;;;5055067;28;20099;-68
2021/01/28 03:08:31;;;;;;;16.65;10.88;;;6.20;95.10;;;;;;5066881;28;20484;-68
2021/01/28 03:10:56;;;;;;;14.50;10.07;;;6.30;95.20;;;;;;5053542;28;20035;-68
2021/01/28 03:13:22;;;;;;;15.52;10.30;;;6.30;95.20;;;;;;5066106;28;20112;-68
2021/01/28 03:15:48;;;;;;;16.25;10.73;;;6.20;95.20;;;;;;5059514;28;20020;-68
2021/01/28 03:18:14;;;;;;;14.27;9.98;;;6.30;95.40;;;;;;5074334;28;20035;-68
2021/01/28 03:20:40;;;;;;;15.82;9.90;;;6.30;95.30;;;;;;5057543;28;20051;-68
2021/01/28 03:23:07;;;;;;;14.20;9.52;;;6.30;95.30;;;;;;5067720;28;20149;-68
2021/01/28 03:25:33;;;;;;;14.45;9.80;;;6.30;95.30;;;;;;5054839;28;20083;-68
2021/01/28 03:27:59;;;;;;;15.32;9.43;;;6.30;95.30;;;;;;5074612;28;20433;-68
2021/01/28 03:30:28;;;;;;;13.90;9.30;;;6.40;95.40;;;;;;5055958;28;20087;-68
2021/01/28 03:32:55;;;;;;;14.65;9.32;;;6.30;95.40;;;;;;5054162;28;20474;-68
2021/01/28 03:35:21;;;;;;;11.30;7.97;;;6.30;95.40;;;;;;5053690;28;20408;-68
2021/01/28 03:37:47;;;;;;;14.77;10.38;;;6.30;95.40;;;;;;5054233;28;20025;-68
2021/01/28 03:40:13;;;;;;;13.85;9.18;;;6.40;95.40;;;;;;5049860;28;20437;-68
2021/01/28 03:42:39;;;;;;;12.68;9.20;;;6.40;95.40;;;;;;5074172;28;20248;-68
2021/01/28 03:45:06;;;;;;;14.50;9.30;;;6.40;95.40;;;;;;5057282;28;20032;-68
2021/01/28 03:47:32;;;;;;;13.40;9.27;;;6.40;95.40;;;;;;5053803;28;20048;-68
2021/01/28 03:49:58;;;;;;;15.77;10.52;;;6.40;95.50;;;;;;5054473;28;20025;-68
2021/01/28 03:52:23;;;;;;;15.52;9.90;;;6.40;95.50;;;;;;5054491;28;20045;-68
2021/01/28 03:54:48;;;;;;;15.45;10.18;;;6.40;95.50;;;;;;5053139;28;20032;-68
2021/01/28 03:57:14;;;;;;;16.67;10.48;;;6.40;95.50;;;;;;5053780;28;20124;-68
2021/01/28 03:59:40;;;;;;;15.98;10.32;;;6.40;95.50;;;;;;5052239;28;20493;-68
2021/01/28 04:02:06;;;;;;;15.98;10.27;;;6.40;95.50;;;;;;5052879;28;20091;-67
2021/01/28 04:04:31;;;;;;;19.52;11.48;;;6.40;95.60;;;;;;5052749;28;20037;-68
2021/01/28 04:06:57;;;;;;;14.68;10.40;;;6.50;95.80;;;;;;5054049;28;20021;-67
2021/01/28 04:09:22;;;;;;;17.95;11.07;;;6.50;95.60;;;;;;5052117;28;20025;-68
2021/01/28 04:11:48;;;;;;;16.15;10.73;;;6.50;95.60;;;;;;5053518;28;20055;-67
2021/01/28 04:14:13;;;;;;;18.45;10.38;;;6.50;95.70;;;;;;5052561;28;20055;-68
2021/01/28 04:16:39;;;;;;;15.02;9.82;;;6.50;95.70;;;;;;5052101;28;20543;-68
2021/01/28 04:19:04;;;;;;;17.17;10.82;;;6.50;95.70;;;;;;5034840;28;20036;-68
2021/01/28 04:21:30;;;;;;;19.10;11.60;;;6.50;95.80;;;;;;5053479;28;20025;-68
2021/01/28 04:23:56;;;;;;;15.15;10.43;;;6.50;95.80;;;;;;5050578;28;20366;-68
2021/01/28 04:26:22;;;;;;;15.20;10.18;;;6.50;95.80;;;;;;5033500;28;20033;-68
2021/01/28 04:28:48;;;;;;;17.38;10.93;;;6.50;95.80;;;;;;5034946;28;20026;-68
2021/01/28 04:31:13;;;;;;;15.35;10.45;;;6.60;95.90;;;;;;5052985;28;20051;-68
2021/01/28 04:33:38;;;;;;;16.40;11.02;;;6.60;95.90;;;;;;5055276;28;20471;-68
2021/01/28 04:36:04;;;;;;;16.27;10.40;;;6.60;95.90;;;;;;5052228;28;20112;-68
2021/01/28 04:38:30;;;;;;;18.95;11.32;;;6.60;95.90;;;;;;5059966;28;20405;-68
2021/01/28 04:41:23;;;;;;;16.45;10.95;;;6.60;95.90;;;;;;5043821;28;20116;-68
2021/01/28 04:43:50;;;;;;;17.20;10.82;;;6.60;96.00;;;;;;5052660;28;20032;-68
2021/01/28 04:46:27;;;;;;;16.67;10.02;;;6.60;95.90;;;;;;5053125;28;20021;-68
2021/01/28 04:48:55;;;;;;;15.48;9.80;;;6.60;95.90;;;;;;5067325;28;20101;-68
2021/01/28 04:51:21;;;;;;;16.25;11.27;;;6.60;95.90;;;;;;5032948;28;20028;-69
2021/01/28 04:53:53;;;;;;;15.68;10.60;;;6.60;96.00;;;;;;5068017;28;20111;-68
2021/01/28 04:56:24;;;;;;;17.38;10.63;;;6.60;96.10;;;;;;5052397;28;20149;-68
2021/01/28 04:59:09;;;;;;;16.48;10.15;;;6.60;96.10;;;;;;5052141;28;20037;-68
2021/01/28 05:01:36;;;;;;;;;;;6.60;96.10;;;;;;5054055;28;20089;-68
2021/01/28 05:04:04;;;;;;;17.13;10.48;;;6.60;95.90;;;;;;5052174;28;19909;-68
2021/01/28 05:06:31;;;;;;;16.77;10.32;;;6.60;96.10;;;;;;5060536;28;20052;-68
2021/01/28 05:08:57;;;;;;;15.65;10.40;;;6.60;96.10;;;;;;5051897;28;20021;-68
2021/01/28 05:11:28;;;;;;;17.00;10.48;;;6.60;96.10;;;;;;5068841;28;20028;-68
2021/01/28 05:13:54;;;;;;;16.80;10.93;;;6.60;96.20;;;;;;5068138;28;20029;-68
2021/01/28 05:16:40;;;;;;;15.57;9.93;;;6.70;96.20;;;;;;5066559;28;20033;-68
2021/01/28 05:19:24;;;;;;;16.73;10.63;;;6.70;96.30;;;;;;5051370;28;20177;-67
2021/01/28 05:22:23;;;;;;;16.20;9.95;;;6.70;96.30;;;;;;5072225;28;20032;-66
2021/01/28 05:24:59;;;;;;;16.75;11.05;;;6.70;96.30;;;;;;5073954;28;20484;-67
2021/01/28 05:27:24;;;;;;;17.05;9.93;;;6.70;96.30;;;;;;5050734;28;20119;-67
2021/01/28 05:29:54;;;;;;;18.30;11.27;;;6.70;96.40;;;;;;5050879;28;20039;-67
2021/01/28 05:32:40;;;;;;;18.13;11.38;;;6.80;96.50;;;;;;5058017;28;20051;-66
2021/01/28 05:35:14;;;;;;;15.73;10.07;;;6.80;96.50;;;;;;5054229;28;20433;-67
2021/01/28 05:37:40;;;;;;;13.63;9.93;;;6.80;96.60;;;;;;5047107;28;20091;-66
2021/01/28 05:40:25;;;;;;;17.80;11.27;;;6.80;96.60;;;;;;5049918;28;20128;-66
2021/01/28 05:42:52;;;;;;;21.90;12.90;;;6.80;96.60;;;;;;5051005;28;20071;-66
2021/01/28 05:45:23;;;;;;;17.77;11.15;;;6.90;96.60;;;;;;5040932;28;20371;-66
2021/01/28 05:47:50;;;;;;;20.00;11.57;;;6.90;96.70;;;;;;5041946;28;20024;-67
2021/01/28 05:50:29;;;;;;;18.27;11.15;;;6.90;96.70;;;;;;5050108;28;20448;-65
2021/01/28 05:53:13;;;;;;;19.92;12.02;;;6.90;96.70;;;;;;5051962;28;20032;-65
2021/01/28 05:55:39;;;;;;;16.88;10.82;;;6.90;96.70;;;;;;5050725;28;20432;-66
2021/01/28 05:58:28;;;;;;;18.23;11.52;;;6.90;96.70;;;;;;5053188;28;20040;-66
2021/01/28 06:00:59;;;;;;;18.85;10.43;;;6.90;96.70;;;;;;5050647;28;20504;-65
2021/01/28 06:03:46;;;;;;;18.20;11.10;;;7.00;96.70;;;;;;5051154;28;20123;-65
2021/01/28 06:06:49;;;;;;;16.17;10.85;;;7.00;96.60;;;;;;5051234;28;20520;-64
2021/01/28 06:09:28;;;;;;;19.52;11.70;;;7.00;96.60;;;;;;5040901;28;20025;-65
2021/01/28 06:12:22;;;;;;;19.38;10.85;;;7.00;96.60;;;;;;5051610;28;20493;-65
2021/01/28 06:15:05;;;;;;;19.33;11.98;;;7.00;96.70;;;;;;5041768;28;20037;-65
2021/01/28 06:18:15;;;;;;;21.08;11.63;;;7.00;96.70;;;;;;5050719;28;20521;-66
2021/01/28 06:20:49;;;;;;;19.80;10.80;;;7.00;96.60;;;;;;5049675;28;20127;-66
2021/01/28 06:23:52;;;;;;;20.92;11.50;;;7.00;96.70;;;;;;5050969;28;20493;-67
2021/01/28 06:26:40;;;;;;;19.60;11.65;;;7.00;96.70;;;;;;5051599;28;20048;-68
2021/01/28 06:29:28;;;;;;;17.85;11.02;;;7.00;96.70;;;;;;5048572;28;20021;-67
2021/01/28 06:32:39;;;;;;;18.70;11.73;;;7.00;96.70;;;;;;5031380;28;20037;-66
2021/01/28 06:35:25;;;;;;;21.25;12.25;;;7.10;96.70;;;;;;5043173;28;20040;-66
2021/01/28 06:38:06;;;;;;;18.67;11.13;;;7.10;96.70;;;;;;5050358;28;20032;-67
2021/01/28 06:40:32;;;;;;;19.75;11.98;;;7.10;96.70;;;;;;5049464;28;20072;-67
2021/01/28 06:43:08;;;;;;;19.38;11.73;;;7.10;96.70;;;;;;5050738;28;20052;-66
2021/01/28 06:45:40;;;;;;;16.70;10.57;;;7.10;96.70;;;;;;5048613;28;20040;-67
2021/01/28 06:48:18;;;;;;;17.15;10.75;;;7.10;96.70;;;;;;5050525;28;20033;-67
2021/01/28 06:51:09;;;;;;;19.98;10.90;;;7.10;96.70;;;;;;5049580;28;20037;-67
2021/01/28 06:53:58;;;;;;;18.92;11.38;;;7.10;96.70;;;;;;5050647;28;20029;-67
2021/01/28 06:56:51;;;;;;;19.05;11.48;;;7.20;96.70;;;;;;5036837;28;20072;-67
2021/01/28 06:59:38;;;;;;;20.40;11.38;;;7.20;96.70;;;;;;5051778;28;20045;-66
2021/01/28 07:02:28;;;;;;;20.98;11.85;;;7.20;96.70;;;;;;5050920;28;20033;-66
2021/01/28 07:05:30;;;;;;;19.40;10.80;;;7.20;96.80;;;;;;5051094;28;20108;-66
2021/01/28 07:08:18;;;;;;;19.17;10.98;;;7.20;96.80;;;;;;5050599;28;20029;-66
2021/01/28 07:10:43;;;;;;;18.75;10.38;;;7.20;96.90;;;;;;5049441;28;20132;-66
2021/01/28 07:13:12;;;;;;;13.02;7.47;;;7.20;96.90;;;;;;5071230;28;20063;-68
2021/01/28 07:15:38;;;;;;;15.30;8.10;;;7.00;96.70;;;;;;5052168;28;20082;-66
2021/01/28 07:18:27;;;;;;;12.07;6.93;;;6.90;96.90;;;;;;5058909;28;20127;-67
2021/01/28 07:21:05;;;;;;;7.95;5.18;;;6.80;96.80;;;;;;5050320;28;20389;-67
2021/01/28 07:23:39;;;;;;;8.02;4.68;;;6.80;97.00;;;;;;5050449;28;20120;-66
2021/01/28 07:26:16;;;;;;;7.45;4.15;;;6.80;96.70;;;;;;5049624;28;20021;-67
2021/01/28 07:28:43;;;;;;;7.65;4.30;;;6.70;96.50;;;;;;5041060;28;20111;-67
2021/01/28 07:31:18;;;;;;;7.13;4.07;;;6.70;96.60;;;;;;5035385;28;20532;-67
2021/01/28 07:34:05;;;;;;;7.18;3.97;;;6.70;96.60;;;;;;5046369;28;20029;-67
2021/01/28 07:36:31;;;;;;;7.18;4.20;;;6.70;96.60;;;;;;5052701;28;20051;-67
2021/01/28 07:38:58;;;;;;;10.98;4.80;;;6.70;96.60;;;;;;5053392;28;20529;-67
2021/01/28 07:41:27;;;;;;;9.25;4.47;;;6.70;96.70;;;;;;5041357;28;20029;-68
2021/01/28 07:44:14;;;;;;;7.90;4.38;;;6.70;96.70;;;;;;5036305;28;20654;-68
2021/01/28 07:46:41;;;;;;;10.10;4.88;;;6.60;96.80;;;;;;5053580;28;20029;-68
2021/01/28 07:49:22;;;;;;;8.57;4.82;;;6.60;96.90;;;;;;5052371;28;20025;-67
2021/01/28 07:51:57;;;;;;;10.93;5.53;;;6.60;97.00;;;;;;5052678;28;20029;-69
2021/01/28 07:54:34;;;;;;;9.45;5.40;;;6.60;97.00;;;;;;5053198;28;20104;-69
2021/01/28 07:57:10;;;;;;;9.50;5.32;;;6.60;97.00;;;;;;5053729;28;20053;-69
2021/01/28 07:59:54;;;;;;;9.65;5.63;;;6.60;97.00;;;;;;5048022;28;20045;-69
2021/01/28 08:02:26;;;;;;;10.13;5.95;;;6.60;96.90;;;;;;5037270;28;20025;-69
2021/01/28 08:05:04;;;;;;;10.40;6.10;;;6.60;96.80;;;;;;5043780;28;20047;-69
2021/01/28 08:07:34;;;;;;;8.93;5.35;;;6.60;96.80;;;;;;5051007;28;20025;-69
2021/01/28 08:10:31;;;;;;;10.68;6.43;;;6.50;96.70;;;;;;5050639;28;20040;-69
2021/01/28 08:13:02;;;;;;;11.57;6.43;;;6.50;96.80;;;;;;5053777;28;20025;-70
2021/01/28 08:15:39;;;;;;;11.90;6.93;;;6.50;96.90;;;;;;5052016;28;20037;-69
2021/01/28 08:18:25;;;;;;;11.57;7.13;;;6.50;96.90;;;;;;5053282;28;20627;-70
2021/01/28 08:21:02;;;;;;;11.68;6.65;;;6.50;96.70;;;;;;5045188;28;20063;-70
2021/01/28 08:23:28;;;;;;;13.63;7.20;;;6.50;96.70;;;;;;5051944;28;20486;-69
2021/01/28 08:26:06;;;;;;;12.20;6.82;;;6.40;96.60;;;;;;5052010;28;20029;-69
2021/01/28 08:28:36;;;;;;;13.55;6.85;;;6.40;96.50;;;;;;5051556;28;20039;-69
2021/01/28 08:31:21;;;;;;;13.45;7.70;;;6.40;96.70;;;;;;5052366;28;20025;-69
2021/01/28 08:33:49;;;;;;;9.63;5.85;;;6.40;96.70;;;;;;5051293;28;20074;-69
2021/01/28 08:36:24;;;;;;;10.35;5.88;;;6.50;96.60;;;;;;5053352;28;20056;-69
2021/01/28 08:39:08;;;;;;;11.43;6.15;;;6.40;96.50;;;;;;5052155;28;20036;-69
2021/01/28 08:41:34;;;;;;;11.27;5.82;;;6.50;96.50;;;;;;5052417;28;20029;-70
2021/01/28 08:44:02;;;;;;;9.98;6.13;;;6.50;96.60;;;;;;5050852;28;20162;-69
2021/01/28 08:46:28;;;;;;;12.63;6.30;;;6.60;96.60;;;;;;5033002;28;20512;-69
2021/01/28 08:49:09;;;;;;;10.57;6.60;;;6.60;96.50;;;;;;5035410;28;20037;-69
2021/01/28 08:51:39;;;;;;;12.07;6.85;;;6.60;95.90;;;;;;5053075;28;20032;-69
2021/01/28 08:54:19;;;;;;;9.32;5.72;;;6.50;96.00;;;;;;5052145;28;20025;-69
2021/01/28 08:56:46;;;;;;;10.88;6.40;;;6.50;95.30;;;;;;5059759;28;20051;-69
2021/01/28 08:59:15;;;;;;;9.68;5.57;;;6.40;94.90;;;;;;5061336;28;20515;-69
2021/01/28 09:01:46;;;;;;;11.27;5.88;;;6.40;95.10;;;;;;5049932;28;20025;-69
2021/01/28 09:04:16;;;;;;;13.30;6.38;;;6.40;94.50;;;;;;5052087;28;20048;-68
2021/01/28 09:06:47;;;;;;;12.10;6.13;;;6.30;94.70;;;;;;5051626;28;20032;-68
2021/01/28 09:09:24;;;;;;;10.60;6.45;;;6.30;95.00;;;;;;5061799;28;20044;-68
2021/01/28 09:11:51;;;;;;;10.05;5.63;;;6.40;94.90;;;;;;5052498;28;20025;-68
2021/01/28 09:14:30;;;;;;;13.02;7.53;;;6.40;95.10;;;;;;5059805;28;20078;-69
2021/01/28 09:17:05;;;;;;;13.50;6.50;;;6.40;95.00;;;;;;5050614;28;20044;-68
2021/01/28 09:19:34;;;;;;;10.48;6.25;;;6.40;94.30;;;;;;5051626;28;20041;-68
2021/01/28 09:22:04;;;;;;;10.65;6.30;;;6.30;94.10;;;;;;5052263;28;20115;-69
2021/01/28 09:24:56;;;;;;;12.00;6.32;;;6.20;94.00;;;;;;5046848;28;20084;-69
2021/01/28 09:27:22;;;;;;;11.15;6.78;;;6.20;93.90;;;;;;5065330;28;20040;-69
2021/01/28 09:29:52;;;;;;;12.88;7.35;;;6.20;94.30;;;;;;5050899;28;20021;-69
2021/01/28 09:32:17;;;;;;;11.10;5.72;;;6.30;94.60;;;;;;5051019;28;20114;-69
2021/01/28 09:34:44;;;;;;;10.38;6.68;;;6.30;94.30;;;;;;5061243;28;20067;-69
2021/01/28 09:37:22;;;;;;;13.48;6.68;;;6.20;93.90;;;;;;5051849;28;20032;-69
2021/01/28 09:39:52;;;;;;;13.43;7.30;;;6.30;94.10;;;;;;5050850;28;20049;-68
2021/01/28 09:42:25;;;;;;;12.27;6.13;;;6.20;94.10;;;;;;5050056;28;20045;-69
2021/01/28 09:44:52;;;;;;;11.27;6.30;;;6.30;93.80;;;;;;5042498;28;20099;-69
2021/01/28 09:47:20;;;;;;;11.55;6.72;;;6.20;93.60;;;;;;5032301;28;20032;-69
2021/01/28 09:49:54;;;;;;;10.45;6.40;;;6.30;93.70;;;;;;5047658;28;20121;-69
2021/01/28 09:52:22;;;;;;;11.32;6.53;;;6.30;93.70;;;;;;5051169;28;20035;-69
2021/01/28 09:54:53;;;;;;;14.10;7.35;;;6.30;93.50;;;;;;5053903;28;20473;-68
2021/01/28 09:57:19;;;;;;;10.75;6.13;;;6.30;93.60;;;;;;5051610;28;20044;-68
2021/01/28 09:59:45;;;;;;;13.10;7.32;;;6.40;93.40;;;;;;5050710;28;20032;-68
2021/01/28 10:02:16;;;;;;;11.32;7.00;;;6.40;93.30;;;;;;5051538;28;20485;-68
2021/01/28 10:04:43;;;;;;;12.00;6.97;;;6.50;93.40;;;;;;5049670;28;20036;-68
2021/01/28 10:07:09;;;;;;;10.77;6.57;;;6.50;93.30;;;;;;5051943;28;20048;-69
2021/01/28 10:09:34;;;;;;;12.40;6.72;;;6.60;93.30;;;;;;5050183;28;20602;-68
2021/01/28 10:12:01;;;;;;;15.38;7.07;;;6.60;93.30;;;;;;5051486;28;20024;-69
2021/01/28 10:14:26;;;;;;;11.85;6.68;;;6.60;93.30;;;;;;5046514;28;20032;-69
2021/01/28 10:16:52;;;;;;;12.25;6.82;;;6.70;93.50;;;;;;5031204;28;20021;-69
2021/01/28 10:19:17;;;;;;;12.80;6.55;;;6.70;93.20;;;;;;5048692;28;20117;-69
2021/01/28 10:21:43;;;;;;;14.02;7.70;;;6.70;93.00;;;;;;5053045;28;20035;-69
2021/01/28 10:24:09;;;;;;;11.98;7.40;;;6.70;93.00;;;;;;5050062;28;20112;-69
2021/01/28 10:26:34;;;;;;;12.10;6.38;;;6.70;92.40;;;;;;5049656;28;20512;-69
2021/01/28 10:29:00;;;;;;;11.52;7.10;;;6.70;92.40;;;;;;5049106;28;20028;-69
2021/01/28 10:31:25;;;;;;;12.65;7.43;;;6.60;92.10;;;;;;5050219;28;20036;-70
2021/01/28 10:33:51;;;;;;;13.27;7.50;;;6.70;92.20;;;;;;5050784;28;20029;-69
2021/01/28 10:36:17;;;;;;;15.13;7.63;;;6.80;92.20;;;;;;5050169;28;20036;-69
2021/01/28 10:38:42;;;;;;;11.90;6.28;;;6.70;92.10;;;;;;5051589;28;20504;-69
2021/01/28 10:41:08;;;;;;;11.90;6.85;;;6.70;91.20;;;;;;5050729;28;20060;-69
2021/01/28 10:43:34;;;;;;;13.43;7.13;;;6.70;91.70;;;;;;5067942;28;20427;-69
2021/01/28 10:46:00;;;;;;;13.38;7.03;;;6.80;92.00;;;;;;5050944;28;20055;-68
2021/01/28 10:48:25;;;;;;;11.60;7.40;;;6.80;91.80;;;;;;5068073;28;20082;-69
2021/01/28 10:50:51;;;;;;;14.35;7.63;;;6.80;91.60;;;;;;5050462;28;20048;-69
2021/01/28 10:53:17;;;;;;;12.88;7.55;;;6.80;91.50;;;;;;5050375;28;20040;-69
2021/01/28 10:55:43;;;;;;;10.98;6.82;;;6.80;91.60;;;;;;5050782;28;20053;-68
2021/01/28 10:58:09;;;;;;;13.05;6.78;;;6.90;91.40;;;;;;5050999;28;20021;-68
2021/01/28 11:00:34;;;;;;;12.68;7.22;;;6.80;91.10;;;;;;5050450;28;20435;-70
2021/01/28 11:03:00;;;;;;;13.73;7.78;;;6.80;90.90;;;;;;5051003;28;20450;-68
2021/01/28 11:05:32;;;;;;;18.02;8.10;;;6.80;90.50;;;;;;5054824;28;20033;-69
2021/01/28 11:07:58;;;;;;;13.10;7.68;;;6.80;90.80;;;;;;5046292;28;20018;-67
2021/01/28 11:10:25;;;;;;;14.73;8.18;;;6.70;90.60;;;;;;5054080;28;20087;-67
2021/01/28 11:12:52;;;;;;;12.10;6.63;;;6.70;90.80;;;;;;5054980;28;20039;-67
2021/01/28 11:15:19;;;;;;;13.88;7.45;;;6.70;90.60;;;;;;5054253;28;20075;-67
2021/01/28 11:17:44;;;;;;;10.90;7.22;;;6.70;90.40;;;;;;5049941;28;20017;-67
2021/01/28 11:20:12;;;;;;;11.30;6.13;;;6.60;90.30;;;;;;5047701;28;20056;-67
2021/01/28 11:22:39;;;;;;;14.80;7.43;;;6.60;90.50;;;;;;5069171;28;20056;-67
2021/01/28 11:25:11;;;;;;;12.38;6.95;;;6.60;90.50;;;;;;5054657;28;20036;-67
2021/01/28 11:27:36;;;;;;;13.38;6.93;;;6.60;90.50;;;;;;5040077;28;20021;-67
2021/01/28 11:30:03;;;;;;;12.55;6.63;;;6.60;90.30;;;;;;5053838;28;20489;-68
2021/01/28 11:32:28;;;;;;;10.80;7.00;;;6.50;90.40;;;;;;5054168;28;20025;-67
2021/01/28 11:34:54;;;;;;;10.98;7.07;;;6.60;90.60;;;;;;5048959;28;20040;-67
2021/01/28 11:37:19;;;;;;;12.75;6.93;;;6.50;90.20;;;;;;5053230;28;20033;-67
2021/01/28 11:39:47;;;;;;;11.63;6.53;;;6.50;90.00;;;;;;5039251;28;20417;-67
2021/01/28 11:42:13;;;;;;;11.48;6.32;;;6.40;90.10;;;;;;5034590;28;20104;-67
2021/01/28 11:44:38;;;;;;;14.52;6.68;;;6.50;90.60;;;;;;5055049;28;20545;-67
2021/01/28 11:47:04;;;;;;;14.60;6.88;;;6.50;90.60;;;;;;5057300;28;20122;-67
2021/01/28 11:49:29;;;;;;;12.13;6.78;;;6.50;90.70;;;;;;5052481;28;20028;-67
2021/01/28 11:51:55;;;;;;;10.95;6.07;;;6.50;90.60;;;;;;5054023;28;20027;-67
2021/01/28 11:54:20;;;;;;;12.48;6.07;;;6.60;90.80;;;;;;5065565;28;20021;-67
2021/01/28 11:56:46;;;;;;;9.38;5.78;;;6.60;90.50;;;;;;5037178;28;20575;-69
2021/01/28 11:59:11;;;;;;;13.07;6.65;;;6.60;90.40;;;;;;5054534;28;20044;-69
2021/01/28 12:01:37;;;;;;;9.40;6.22;;;6.70;90.30;;;;;;5053851;28;20020;-69
2021/01/28 12:04:02;;;;;;;10.70;6.20;;;6.80;90.20;;;;;;5051709;28;20460;-69
2021/01/28 12:06:28;;;;;;;9.98;5.57;;;6.80;90.20;;;;;;5057250;28;20016;-69
2021/01/28 12:08:53;;;;;;;9.75;6.03;;;6.90;90.30;;;;;;5067828;28;20044;-69
2021/01/28 12:11:19;;;;;;;8.95;5.65;;;6.90;90.10;;;;;;5054655;28;20162;-69
2021/01/28 12:13:44;;;;;;;9.90;5.47;;;6.90;89.40;;;;;;5052853;28;20024;-69
2021/01/28 12:16:10;;;;;;;9.63;5.93;;;6.90;88.00;;;;;;5049314;28;20072;-69
2021/01/28 12:18:36;;;;;;;10.57;6.50;;;6.90;88.90;;;;;;5034233;28;20128;-69
2021/01/28 12:21:02;;;;;;;11.15;6.47;;;6.90;88.80;;;;;;5052434;28;20029;-69
2021/01/28 12:23:27;;;;;;;9.38;6.07;;;6.90;88.70;;;;;;5059006;28;20036;-69
2021/01/28 12:25:52;;;;;;;9.77;5.95;;;6.90;88.90;;;;;;5052045;28;20031;-69
2021/01/28 12:28:18;;;;;;;10.23;5.53;;;7.00;88.10;;;;;;5071710;28;20028;-70
2021/01/28 12:30:43;;;;;;;10.23;5.28;;;7.00;88.30;;;;;;5037476;28;20389;-72
2021/01/28 12:33:09;;;;;;;7.95;4.90;;;7.10;87.30;;;;;;5073488;28;20027;-68
2021/01/28 12:35:35;;;;;;;7.32;4.68;;;7.10;87.20;;;;;;5051550;28;20431;-70
2021/01/28 12:38:01;;;;;;;9.05;5.18;;;7.10;86.90;;;;;;5054795;28;20028;-68
2021/01/28 12:40:27;;;;;;;9.50;5.30;;;7.20;87.20;;;;;;5052850;28;20048;-68
2021/01/28 12:42:53;;;;;;;7.90;4.65;;;7.20;86.50;;;;;;5052189;28;20381;-63
2021/01/28 12:45:19;;;;;;;8.05;4.47;;;7.20;87.20;;;;;;5051929;28;20067;-62
2021/01/28 12:47:45;;;;;;;7.07;4.53;;;7.20;86.50;;;;;;5052976;28;20048;-62
2021/01/28 12:50:11;;;;;;;8.30;5.30;;;7.20;86.30;;;;;;5044334;28;20033;-63
2021/01/28 12:52:37;;;;;;;7.30;4.28;;;7.20;86.00;;;;;;5046420;28;20378;-62
2021/01/28 12:55:05;;;;;;;6.93;4.43;;;7.30;86.00;;;;;;5050291;28;20025;-62
2021/01/28 12:57:30;;;;;;;7.30;4.90;;;7.30;85.30;;;;;;5052578;28;20043;-63
2021/01/28 12:59:55;;;;;;;7.88;4.50;;;7.30;84.70;;;;;;5047873;28;20037;-62
2021/01/28 13:02:21;;;;;;;7.25;4.32;;;7.30;83.90;;;;;;5049160;28;20021;-62
2021/01/28 13:04:46;;;;;;;8.65;4.00;;;7.20;83.20;;;;;;5061346;28;20028;-67